Time;durP1;ratioP1;P1;durP2;ratioP2;P2;SDS_P1;SDS_P2;PMS_P1;PMS_P2;Temp;Humidity;BMP_temperature;BMP_pressure;BME280_temperature;BME280_humidity;BME280_pressure;Samples;Min_cycle;Max_cycle;Signal;HPM_P1;HPM_P2
2024/02/21 00:03:40;;;;;;;51.30;30.70;;;;;;;;;;10298575;28;20481;-80
2024/02/21 00:08:42;;;;;;;54.43;31.30;;;;;;;;;;10298852;28;20415;-81
2024/02/21 00:13:46;;;;;;;51.70;28.80;;;;;;;;;;10306004;28;20851;-81
2024/02/21 00:18:48;;;;;;;49.00;28.45;;;;;;;;;;10302325;28;20413;-81
2024/02/21 00:23:51;;;;;;;50.70;29.20;;;;;;;;;;10300637;28;20907;-81
2024/02/21 00:28:55;;;;;;;46.07;28.90;;;;;;;;;;10300303;28;20453;-81
2024/02/21 00:33:57;;;;;;;48.27;29.83;;;;;;;;;;10295606;28;20497;-81
2024/02/21 00:39:00;;;;;;;49.10;27.67;;;;;;;;;;10296288;28;20422;-81
2024/02/21 00:44:05;;;;;;;49.42;28.17;;;;;;;;;;10299207;28;20421;-80
2024/02/21 00:49:07;;;;;;;49.03;28.23;;;;;;;;;;10295639;28;20494;-82
2024/02/21 00:54:10;;;;;;;48.22;28.95;;;;;;;;;;10295174;28;20422;-80
2024/02/21 00:59:14;;;;;;;48.03;27.27;;;;;;;;;;10291290;28;20526;-81
2024/02/21 01:04:16;;;;;;;51.40;28.13;;;;;;;;;;10292264;28;20481;-81
2024/02/21 01:09:18;;;;;;;48.00;27.63;;;;;;;;;;10302966;28;20405;-80
2024/02/21 01:14:22;;;;;;;48.70;29.10;;;;;;;;;;10304015;28;20474;-81
2024/02/21 01:19:24;;;;;;;48.33;27.55;;;;;;;;;;10303884;28;20410;-81
2024/02/21 01:24:27;;;;;;;47.88;26.33;;;;;;;;;;10298820;28;20559;-80
2024/02/21 01:29:30;;;;;;;46.08;26.65;;;;;;;;;;10302161;28;20901;-81
2024/02/21 01:34:33;;;;;;;42.17;25.53;;;;;;;;;;10298088;28;20450;-80
2024/02/21 01:39:35;;;;;;;39.10;24.77;;;;;;;;;;10303872;28;20444;-80
2024/02/21 01:44:39;;;;;;;40.83;24.35;;;;;;;;;;10302084;28;20477;-80
2024/02/21 01:49:41;;;;;;;39.20;22.50;;;;;;;;;;10298230;28;20899;-80
2024/02/21 01:54:45;;;;;;;33.63;20.43;;;;;;;;;;10299263;28;21007;-80
2024/02/21 01:59:49;;;;;;;30.75;18.67;;;;;;;;;;10309065;28;20414;-80
2024/02/21 02:04:52;;;;;;;35.50;20.17;;;;;;;;;;10302759;28;20781;-80
2024/02/21 02:09:55;;;;;;;31.50;18.20;;;;;;;;;;10307346;28;20469;-80
2024/02/21 02:15:04;;;;;;;33.70;19.53;;;;;;;;;;10302535;28;20460;-81
2024/02/21 02:20:08;;;;;;;33.10;18.80;;;;;;;;;;10305797;28;20925;-80
2024/02/21 02:25:12;;;;;;;31.40;19.55;;;;;;;;;;10304528;28;20440;-80
2024/02/21 02:30:14;;;;;;;29.50;17.77;;;;;;;;;;10301194;28;20504;-80
2024/02/21 02:35:17;;;;;;;32.70;18.42;;;;;;;;;;10305707;28;20454;-80
2024/02/21 02:40:20;;;;;;;29.23;17.65;;;;;;;;;;10308511;28;20838;-80
2024/02/21 02:45:26;;;;;;;29.63;16.80;;;;;;;;;;10303121;28;20467;-80
2024/02/21 02:50:28;;;;;;;27.00;16.63;;;;;;;;;;10299810;28;20403;-81
2024/02/21 02:55:32;;;;;;;27.08;16.15;;;;;;;;;;10305360;28;20464;-80
2024/02/21 03:00:36;;;;;;;25.77;15.70;;;;;;;;;;10303274;28;20410;-81
2024/02/21 03:05:38;;;;;;;26.48;15.48;;;;;;;;;;10301999;28;20475;-79
2024/02/21 03:10:42;;;;;;;27.08;16.15;;;;;;;;;;10306635;28;21066;-81
2024/02/21 03:15:44;;;;;;;28.17;17.47;;;;;;;;;;10301862;28;20531;-81
2024/02/21 03:20:47;;;;;;;30.30;17.50;;;;;;;;;;10299177;28;20502;-80
2024/02/21 03:25:51;;;;;;;31.42;18.55;;;;;;;;;;10307589;28;20516;-80
2024/02/21 03:30:53;;;;;;;34.70;19.50;;;;;;;;;;10300698;28;20449;-80
2024/02/21 03:35:55;;;;;;;29.23;18.48;;;;;;;;;;10295596;28;21003;-81
2024/02/21 03:40:59;;;;;;;30.73;19.27;;;;;;;;;;10298471;28;20450;-80
2024/02/21 03:46:02;;;;;;;32.07;18.43;;;;;;;;;;10299135;28;20448;-80
2024/02/21 03:51:05;;;;;;;29.50;16.65;;;;;;;;;;10299658;28;20507;-80
2024/02/21 03:56:09;;;;;;;29.70;15.85;;;;;;;;;;10302955;28;20482;-80
2024/02/21 04:01:12;;;;;;;28.90;16.85;;;;;;;;;;10296677;28;20470;-80
2024/02/21 04:06:14;;;;;;;27.25;16.15;;;;;;;;;;10294739;28;20481;-81
2024/02/21 04:11:18;;;;;;;27.40;16.03;;;;;;;;;;10299094;28;20431;-80
2024/02/21 04:16:21;;;;;;;29.92;16.08;;;;;;;;;;10292893;28;20757;-80
2024/02/21 04:21:23;;;;;;;23.55;14.98;;;;;;;;;;10294209;28;20411;-79
2024/02/21 04:26:27;;;;;;;24.17;14.48;;;;;;;;;;10301851;28;20919;-80
2024/02/21 04:31:30;;;;;;;26.97;14.67;;;;;;;;;;10297324;28;20475;-81
2024/02/21 04:36:32;;;;;;;25.23;14.02;;;;;;;;;;10293943;28;20664;-80
2024/02/21 04:41:36;;;;;;;24.85;13.93;;;;;;;;;;10300586;28;20424;-80
2024/02/21 04:46:38;;;;;;;26.15;14.02;;;;;;;;;;10297539;28;20409;-80
2024/02/21 04:51:42;;;;;;;25.85;14.13;;;;;;;;;;10299961;28;20666;-80
2024/02/21 04:56:45;;;;;;;24.08;13.68;;;;;;;;;;10299899;28;20532;-81
2024/02/21 05:01:48;;;;;;;24.80;13.70;;;;;;;;;;10298129;28;20422;-81
2024/02/21 05:06:50;;;;;;;23.23;13.40;;;;;;;;;;10296845;28;20667;-80
2024/02/21 06:07:31;;;;;;;21.05;13.05;;;;;;;;;;10384221;28;20490;-80
2024/02/21 06:12:33;;;;;;;22.67;13.20;;;;;;;;;;10386799;28;20413;-81
2024/02/21 06:17:35;;;;;;;22.98;14.18;;;;;;;;;;10382209;28;21014;-80
2024/02/21 06:22:39;;;;;;;23.02;12.43;;;;;;;;;;10392348;28;20441;-81
2024/02/21 06:27:41;;;;;;;23.00;12.93;;;;;;;;;;10381658;28;20533;-81
2024/02/21 06:32:44;;;;;;;22.47;12.93;;;;;;;;;;10376351;28;21177;-80
2024/02/21 06:37:50;;;;;;;22.70;12.25;;;;;;;;;;10389025;28;20538;-81
2024/02/21 06:42:53;;;;;;;19.95;12.20;;;;;;;;;;10381176;28;20509;-81
2024/02/21 06:47:55;;;;;;;20.85;12.00;;;;;;;;;;10384158;28;20446;-80
2024/02/21 06:52:59;;;;;;;20.10;11.90;;;;;;;;;;10382489;28;20560;-81
2024/02/21 06:58:02;;;;;;;22.50;13.05;;;;;;;;;;10387137;28;20988;-81
2024/02/21 07:03:05;;;;;;;27.10;13.07;;;;;;;;;;10381652;28;20482;-80
2024/02/21 07:08:09;;;;;;;23.67;12.23;;;;;;;;;;10385456;28;20457;-80
2024/02/21 07:13:11;;;;;;;21.00;13.20;;;;;;;;;;10386557;28;20441;-80
2024/02/21 07:18:13;;;;;;;23.17;12.70;;;;;;;;;;10380855;28;20525;-81
2024/02/21 07:23:17;;;;;;;22.63;12.60;;;;;;;;;;10388321;28;20851;-80
2024/02/21 07:28:19;;;;;;;21.42;12.30;;;;;;;;;;10394845;28;20419;-79
2024/02/21 07:33:22;;;;;;;23.35;12.43;;;;;;;;;;10386534;28;20437;-79
2024/02/21 07:38:25;;;;;;;23.10;12.48;;;;;;;;;;10383815;28;20463;-81
2024/02/21 07:43:28;;;;;;;23.50;12.70;;;;;;;;;;10388934;28;20443;-80
2024/02/21 07:49:21;;;;;;;23.60;13.07;;;;;;;;;;10419575;23;20450;-96
2024/02/21 07:54:25;;;;;;;22.30;12.03;;;;;;;;;;10352152;28;20495;-94
2024/02/21 07:59:27;;;;;;;22.75;12.52;;;;;;;;;;10359127;28;20403;-93
2024/02/21 08:04:30;;;;;;;19.70;10.98;;;;;;;;;;10363794;28;20416;-93
2024/02/21 08:09:34;;;;;;;21.87;12.57;;;;;;;;;;10375684;28;20402;-94
2024/02/21 08:14:37;;;;;;;24.47;12.67;;;;;;;;;;10355771;28;20479;-94
2024/02/21 08:19:40;;;;;;;23.30;12.87;;;;;;;;;;10368443;28;20466;-93
2024/02/21 08:24:47;;;;;;;21.03;12.30;;;;;;;;;;10384899;28;20405;-95
2024/02/21 08:30:14;;;;;;;22.83;12.32;;;;;;;;;;10339760;28;20496;-96
2024/02/21 08:35:18;;;;;;;18.65;11.98;;;;;;;;;;10321247;28;20825;-95
2024/02/21 08:40:22;;;;;;;23.83;11.48;;;;;;;;;;10307823;28;20404;-93
2024/02/21 08:45:27;;;;;;;21.45;11.27;;;;;;;;;;10346479;28;20479;-95
2024/02/21 08:50:29;;;;;;;17.35;10.32;;;;;;;;;;10315397;28;20423;-93
2024/02/21 08:55:59;;;;;;;15.15;9.60;;;;;;;;;;10325143;28;20421;-96
2024/02/21 09:01:03;;;;;;;18.77;11.40;;;;;;;;;;10324449;28;20422;-94
2024/02/21 09:06:07;;;;;;;17.27;9.30;;;;;;;;;;10344401;28;20828;-93
2024/02/21 09:11:11;;;;;;;17.52;10.05;;;;;;;;;;10331007;28;20410;-95
2024/02/21 09:16:14;;;;;;;20.77;11.18;;;;;;;;;;10333548;28;20414;-96
2024/02/21 09:21:17;;;;;;;17.05;10.48;;;;;;;;;;10328362;28;20539;-94
2024/02/21 09:26:21;;;;;;;12.27;8.07;;;;;;;;;;10330647;28;20455;-93
2024/02/21 09:31:24;;;;;;;11.50;7.13;;;;;;;;;;10325915;28;20745;-93
2024/02/21 09:36:26;;;;;;;10.37;6.40;;;;;;;;;;10330876;28;20844;-95
2024/02/21 09:41:39;;;;;;;9.38;6.57;;;;;;;;;;10329105;28;20832;-95
2024/02/21 09:46:53;;;;;;;8.15;4.40;;;;;;;;;;10332886;28;20487;-93
2024/02/21 09:51:58;;;;;;;7.50;4.40;;;;;;;;;;10332039;28;20417;-94
2024/02/21 09:57:02;;;;;;;6.18;4.60;;;;;;;;;;10347579;28;20421;-95
2024/02/21 10:02:06;;;;;;;7.50;5.47;;;;;;;;;;10338387;28;20450;-94
2024/02/21 10:07:11;;;;;;;6.60;4.50;;;;;;;;;;10331331;28;20425;-96
2024/02/21 10:12:19;;;;;;;6.97;4.37;;;;;;;;;;10339459;28;20405;-96
2024/02/21 10:17:32;;;;;;;6.07;4.00;;;;;;;;;;10345226;28;20898;-96
2024/02/21 10:22:39;;;;;;;6.97;3.95;;;;;;;;;;10327178;28;20469;-94
2024/02/21 10:27:43;;;;;;;5.83;4.10;;;;;;;;;;10333081;28;20907;-95
2024/02/21 10:32:52;;;;;;;10.35;6.70;;;;;;;;;;10327423;28;20409;-96
2024/02/21 10:37:55;;;;;;;7.47;5.17;;;;;;;;;;10331843;28;20686;-94
2024/02/21 10:43:01;;;;;;;8.00;4.82;;;;;;;;;;10331509;28;20831;-95
2024/02/21 10:48:11;;;;;;;7.88;4.30;;;;;;;;;;10333571;28;20686;-95
2024/02/21 10:53:25;;;;;;;7.03;4.55;;;;;;;;;;10331411;28;20475;-95
2024/02/21 10:58:33;;;;;;;7.20;4.38;;;;;;;;;;10329904;28;20415;-95
2024/02/21 11:09:03;;;;;;;6.90;5.25;;;;;;;;;;10313396;28;20432;-87
2024/02/21 11:14:08;;;;;;;6.05;4.18;;;;;;;;;;10320547;28;20456;-87
2024/02/21 11:19:20;;;;;;;7.87;5.60;;;;;;;;;;10323131;28;20583;-87
2024/02/21 11:24:30;;;;;;;9.57;4.90;;;;;;;;;;10323337;28;20423;-87
2024/02/21 11:29:34;;;;;;;7.35;4.72;;;;;;;;;;10321013;28;20428;-88
2024/02/21 11:34:36;;;;;;;5.40;4.10;;;;;;;;;;10332317;28;20481;-88
2024/02/21 11:39:39;;;;;;;7.75;4.72;;;;;;;;;;10313581;28;20858;-87
2024/02/21 11:44:43;;;;;;;7.28;4.38;;;;;;;;;;10319844;28;20416;-87
2024/02/21 11:49:49;;;;;;;6.30;4.47;;;;;;;;;;10322913;28;20426;-86
2024/02/21 11:54:52;;;;;;;10.95;4.45;;;;;;;;;;10317470;28;20467;-88
2024/02/21 11:59:56;;;;;;;7.05;4.90;;;;;;;;;;10320767;28;20463;-88
2024/02/21 12:04:58;;;;;;;7.55;5.15;;;;;;;;;;10327204;28;20471;-88
2024/02/21 12:10:01;;;;;;;7.47;5.65;;;;;;;;;;10323690;28;20495;-87
2024/02/21 12:15:05;;;;;;;9.13;6.35;;;;;;;;;;10322459;28;20418;-88
2024/02/21 12:20:08;;;;;;;8.40;5.67;;;;;;;;;;10314273;28;20735;-88
2024/02/21 12:25:19;;;;;;;10.55;6.28;;;;;;;;;;10320154;28;20502;-89
2024/02/21 12:30:22;;;;;;;9.57;6.35;;;;;;;;;;10316909;28;20522;-89
2024/02/21 12:35:25;;;;;;;25.63;14.15;;;;;;;;;;10317520;28;20419;-89
2024/02/21 12:40:32;;;;;;;15.82;8.32;;;;;;;;;;10312654;28;20421;-91
2024/02/21 12:45:36;;;;;;;13.95;8.75;;;;;;;;;;10314689;28;20881;-89
2024/02/21 12:50:38;;;;;;;18.33;10.90;;;;;;;;;;10311172;28;20493;-89
2024/02/21 12:55:40;;;;;;;17.58;10.07;;;;;;;;;;10312993;28;20487;-89
2024/02/21 13:00:44;;;;;;;15.73;9.65;;;;;;;;;;10329016;28;20944;-90
2024/02/21 13:05:48;;;;;;;15.00;10.25;;;;;;;;;;10327184;28;20978;-91
2024/02/21 13:10:50;;;;;;;16.70;10.60;;;;;;;;;;10319760;28;20831;-90
2024/02/21 13:15:54;;;;;;;19.60;11.07;;;;;;;;;;10334698;28;20511;-90
2024/02/21 13:20:56;;;;;;;17.85;11.00;;;;;;;;;;10335338;28;20787;-91
2024/02/21 13:25:59;;;;;;;26.45;13.90;;;;;;;;;;10311215;28;20446;-90
2024/02/21 13:31:03;;;;;;;23.80;14.48;;;;;;;;;;10315954;28;20401;-90
2024/02/21 13:36:06;;;;;;;22.60;13.90;;;;;;;;;;10313589;28;20441;-87
2024/02/21 13:41:09;;;;;;;21.75;13.60;;;;;;;;;;10320760;28;20850;-88
2024/02/21 13:46:13;;;;;;;23.25;14.50;;;;;;;;;;10312288;28;20411;-89
2024/02/21 13:51:16;;;;;;;21.65;13.55;;;;;;;;;;10323449;28;20413;-87
2024/02/21 13:56:19;;;;;;;24.63;14.57;;;;;;;;;;10320367;28;20475;-88
2024/02/21 14:01:22;;;;;;;22.83;14.65;;;;;;;;;;10313719;28;20475;-87
2024/02/21 14:06:25;;;;;;;20.38;12.88;;;;;;;;;;10316454;28;20483;-89
2024/02/21 14:11:27;;;;;;;21.05;12.35;;;;;;;;;;10316017;28;20405;-88
2024/02/21 14:16:31;;;;;;;19.30;12.65;;;;;;;;;;10320799;28;20433;-87
2024/02/21 14:21:34;;;;;;;24.10;13.60;;;;;;;;;;10316986;28;20899;-87
2024/02/21 14:26:37;;;;;;;24.10;13.33;;;;;;;;;;10327976;28;20585;-88
2024/02/21 14:31:40;;;;;;;22.27;13.65;;;;;;;;;;10332789;28;20417;-87
2024/02/21 14:36:43;;;;;;;22.75;13.93;;;;;;;;;;10298868;28;21051;-88
2024/02/21 14:41:45;;;;;;;20.53;12.60;;;;;;;;;;10312051;28;20468;-88
2024/02/21 14:46:49;;;;;;;21.42;12.02;;;;;;;;;;10323073;28;20417;-88
2024/02/21 14:51:52;;;;;;;20.92;12.43;;;;;;;;;;10318583;28;20433;-88
2024/02/21 14:56:55;;;;;;;18.67;11.77;;;;;;;;;;10327100;28;20420;-87
2024/02/21 15:01:59;;;;;;;23.93;11.80;;;;;;;;;;10325806;28;20425;-89
2024/02/21 15:07:02;;;;;;;16.60;10.55;;;;;;;;;;10328210;28;20410;-88
2024/02/21 15:12:06;;;;;;;22.80;11.75;;;;;;;;;;10316482;28;20777;-88
2024/02/21 15:17:10;;;;;;;25.35;11.18;;;;;;;;;;10311863;28;20467;-86
2024/02/21 15:22:13;;;;;;;20.65;11.13;;;;;;;;;;10316948;28;20483;-89
2024/02/21 15:27:16;;;;;;;16.20;10.88;;;;;;;;;;10326000;28;20452;-89
2024/02/21 15:32:20;;;;;;;21.87;11.47;;;;;;;;;;10323249;28;20477;-88
2024/02/21 15:37:22;;;;;;;18.90;11.50;;;;;;;;;;10334788;28;20429;-89
2024/02/21 15:42:24;;;;;;;18.42;11.45;;;;;;;;;;10331840;28;20446;-89
2024/02/21 15:47:28;;;;;;;19.73;11.20;;;;;;;;;;10307392;28;20908;-89
2024/02/21 15:52:31;;;;;;;19.87;11.90;;;;;;;;;;10321689;28;20499;-88
2024/02/21 15:57:33;;;;;;;20.10;12.35;;;;;;;;;;10327745;28;20765;-89
2024/02/21 16:02:37;;;;;;;20.63;12.63;;;;;;;;;;10334190;28;20475;-88
2024/02/21 16:07:40;;;;;;;19.15;12.20;;;;;;;;;;10313600;28;20421;-89
2024/02/21 16:12:42;;;;;;;19.52;12.80;;;;;;;;;;10310696;28;21360;-88
2024/02/21 16:17:47;;;;;;;23.13;13.45;;;;;;;;;;10302539;28;20497;-89
2024/02/21 16:22:49;;;;;;;19.40;12.65;;;;;;;;;;10312590;28;20468;-89
2024/02/21 16:27:52;;;;;;;19.13;11.48;;;;;;;;;;10322898;28;20422;-89
2024/02/21 16:32:55;;;;;;;17.48;10.98;;;;;;;;;;10315034;28;20411;-88
2024/02/21 16:37:58;;;;;;;21.27;11.82;;;;;;;;;;10328100;28;20830;-88
2024/02/21 16:43:02;;;;;;;22.13;12.65;;;;;;;;;;10330604;28;20775;-88
2024/02/21 16:48:07;;;;;;;26.10;13.40;;;;;;;;;;10323123;28;20429;-89
2024/02/21 16:53:09;;;;;;;26.02;14.73;;;;;;;;;;10328712;28;20891;-89
2024/02/21 16:58:12;;;;;;;23.58;14.35;;;;;;;;;;10331375;28;20425;-89
2024/02/21 17:03:19;;;;;;;19.47;11.77;;;;;;;;;;10305639;28;20492;-92
2024/02/21 17:39:50;;;;;;;24.05;13.23;;;;;;;;;;10274179;28;20438;-89
2024/02/21 17:44:53;;;;;;;27.38;15.70;;;;;;;;;;10269056;28;20480;-87
2024/02/21 17:49:55;;;;;;;29.67;16.27;;;;;;;;;;10276625;28;20415;-90
2024/02/21 17:54:59;;;;;;;28.73;17.20;;;;;;;;;;10286648;28;20455;-87
2024/02/21 18:00:02;;;;;;;25.30;15.23;;;;;;;;;;10265452;28;20428;-89
2024/02/21 18:05:05;;;;;;;25.30;13.95;;;;;;;;;;10276036;28;20422;-89
2024/02/21 18:10:09;;;;;;;23.65;15.18;;;;;;;;;;10281874;28;20426;-87
2024/02/21 18:15:12;;;;;;;19.13;13.57;;;;;;;;;;10289794;28;20416;-90
2024/02/21 18:20:15;;;;;;;19.67;13.48;;;;;;;;;;10281099;28;20430;-86
2024/02/21 18:25:20;;;;;;;23.42;13.07;;;;;;;;;;10273522;28;20970;-87
2024/02/21 18:30:36;;;;;;;20.67;12.95;;;;;;;;;;10296767;28;21251;-87
2024/02/21 18:35:39;;;;;;;20.10;12.50;;;;;;;;;;10279242;28;20422;-86
2024/02/21 18:40:43;;;;;;;20.52;12.77;;;;;;;;;;10280999;28;20485;-88
2024/02/21 18:45:45;;;;;;;24.23;12.57;;;;;;;;;;10269260;28;20931;-88
2024/02/21 18:50:47;;;;;;;30.00;17.30;;;;;;;;;;10281212;28;20419;-87
2024/02/21 18:55:51;;;;;;;23.27;14.03;;;;;;;;;;10278855;28;20426;-86
2024/02/21 19:00:53;;;;;;;25.15;15.93;;;;;;;;;;10285175;28;20428;-88
2024/02/21 19:05:56;;;;;;;29.58;17.45;;;;;;;;;;10276144;28;20450;-79
2024/02/21 19:11:00;;;;;;;28.90;18.53;;;;;;;;;;10288593;28;20473;-88
2024/02/21 19:16:02;;;;;;;32.13;17.77;;;;;;;;;;10277741;28;20422;-89
2024/02/21 19:21:08;;;;;;;27.95;18.20;;;;;;;;;;10268124;28;20501;-87
2024/02/21 19:26:12;;;;;;;30.42;18.70;;;;;;;;;;10281739;28;20412;-86
2024/02/21 19:31:14;;;;;;;25.20;16.20;;;;;;;;;;10282928;28;20473;-86
2024/02/21 19:36:19;;;;;;;24.48;15.32;;;;;;;;;;10282683;28;21165;-87
2024/02/21 19:41:22;;;;;;;26.77;17.13;;;;;;;;;;10277695;28;21552;-87
2024/02/21 19:46:25;;;;;;;29.13;18.15;;;;;;;;;;10294446;28;20458;-88
2024/02/21 19:51:28;;;;;;;28.33;17.98;;;;;;;;;;10277251;28;20430;-85
2024/02/21 19:56:32;;;;;;;25.55;16.90;;;;;;;;;;10279898;28;20446;-87
2024/02/21 20:01:34;;;;;;;24.05;15.75;;;;;;;;;;10266341;28;20418;-87
2024/02/21 20:06:37;;;;;;;27.60;16.92;;;;;;;;;;10270797;28;20454;-90
2024/02/21 20:11:41;;;;;;;34.47;19.88;;;;;;;;;;10291388;28;20422;-89
2024/02/21 20:16:44;;;;;;;32.03;19.27;;;;;;;;;;10308811;28;20404;-88
2024/02/21 20:21:48;;;;;;;33.28;20.50;;;;;;;;;;10287205;28;20443;-89
2024/02/21 20:26:52;;;;;;;30.20;19.00;;;;;;;;;;10276786;28;20952;-90
2024/02/21 20:31:57;;;;;;;34.83;20.73;;;;;;;;;;10269845;28;20446;-89
2024/02/21 20:37:00;;;;;;;33.67;20.20;;;;;;;;;;10286128;28;20471;-88
2024/02/21 20:42:05;;;;;;;30.80;19.00;;;;;;;;;;10282810;28;20431;-90
2024/02/21 20:47:07;;;;;;;28.23;18.07;;;;;;;;;;10291341;28;20922;-90
2024/02/21 20:52:10;;;;;;;29.73;18.83;;;;;;;;;;10296573;28;20465;-88
2024/02/21 20:57:14;;;;;;;28.95;19.08;;;;;;;;;;10275051;28;20483;-86
2024/02/21 21:02:17;;;;;;;33.28;19.17;;;;;;;;;;10280968;28;20424;-88
2024/02/21 21:07:21;;;;;;;33.17;19.45;;;;;;;;;;10279441;28;21068;-88
2024/02/21 21:12:25;;;;;;;29.90;19.80;;;;;;;;;;10285191;28;20430;-88
2024/02/21 21:17:27;;;;;;;31.10;19.83;;;;;;;;;;10284401;28;20433;-88
2024/02/21 21:22:29;;;;;;;30.70;18.13;;;;;;;;;;10284586;28;20777;-87
2024/02/21 21:27:33;;;;;;;31.73;20.10;;;;;;;;;;10298146;28;20793;-86
2024/02/21 21:32:36;;;;;;;31.95;19.30;;;;;;;;;;10290687;28;20885;-82
2024/02/21 21:37:39;;;;;;;31.30;19.30;;;;;;;;;;10300239;28;20422;-88
2024/02/21 21:42:43;;;;;;;33.72;19.58;;;;;;;;;;10276080;28;20819;-79
2024/02/21 21:47:45;;;;;;;33.38;19.35;;;;;;;;;;10277787;28;20414;-89
2024/02/21 21:52:48;;;;;;;29.75;18.50;;;;;;;;;;10270014;28;20444;-92
2024/02/21 21:57:51;;;;;;;31.60;19.35;;;;;;;;;;10287767;28;20561;-91
2024/02/21 22:02:54;;;;;;;30.93;19.93;;;;;;;;;;10281219;28;20434;-91
2024/02/21 22:07:58;;;;;;;32.43;19.40;;;;;;;;;;10319215;28;20493;-92
2024/02/21 22:13:02;;;;;;;34.53;20.58;;;;;;;;;;10291594;28;20445;-90
2024/02/21 22:18:05;;;;;;;34.03;19.98;;;;;;;;;;10296199;28;20424;-92
2024/02/21 22:23:09;;;;;;;33.47;20.55;;;;;;;;;;10297238;28;20492;-91
2024/02/21 22:28:13;;;;;;;34.83;20.83;;;;;;;;;;10276607;28;20453;-91
2024/02/21 22:33:15;;;;;;;35.38;21.02;;;;;;;;;;10270410;28;20420;-91
2024/02/21 22:38:17;;;;;;;31.70;20.88;;;;;;;;;;10283992;28;20913;-91
2024/02/21 22:43:21;;;;;;;32.75;20.27;;;;;;;;;;10274850;28;20441;-92
2024/02/21 22:48:23;;;;;;;34.13;21.25;;;;;;;;;;10276796;28;20407;-92
2024/02/21 22:53:26;;;;;;;36.53;21.98;;;;;;;;;;10276869;28;20410;-92
2024/02/21 22:58:29;;;;;;;37.28;22.50;;;;;;;;;;10284011;28;20417;-92
2024/02/21 23:03:32;;;;;;;34.58;20.58;;;;;;;;;;10279412;28;20490;-91
2024/02/21 23:08:35;;;;;;;37.30;22.95;;;;;;;;;;10270203;28;20482;-91
2024/02/21 23:13:39;;;;;;;40.13;23.97;;;;;;;;;;10280169;28;20447;-92
2024/02/21 23:18:41;;;;;;;40.67;24.30;;;;;;;;;;10281965;28;20793;-92
2024/02/21 23:23:44;;;;;;;40.53;24.25;;;;;;;;;;10321176;28;20408;-92
2024/02/21 23:28:47;;;;;;;44.40;25.27;;;;;;;;;;10298415;28;20414;-92
2024/02/21 23:33:50;;;;;;;40.20;24.77;;;;;;;;;;10284365;28;20433;-92
2024/02/21 23:38:52;;;;;;;41.75;24.45;;;;;;;;;;10308156;28;20418;-92
2024/02/21 23:43:56;;;;;;;39.47;23.48;;;;;;;;;;10281477;28;20411;-92
2024/02/21 23:49:01;;;;;;;37.85;22.92;;;;;;;;;;10279992;28;20442;-93
2024/02/21 23:54:03;;;;;;;39.83;24.05;;;;;;;;;;10287673;28;20477;-92
2024/02/21 23:59:07;;;;;;;37.47;23.35;;;;;;;;;;10276624;28;20418;-92
